createdAt,value
2018-09-02T00:00:43.887Z,95629.27
2018-09-02T00:03:12.726Z,95636.91
2018-09-02T00:05:41.593Z,95632.64
2018-09-02T00:08:10.488Z,95633.77
2018-09-02T00:10:39.259Z,95634.70
2018-09-02T00:13:08.077Z,95631.17
2018-09-02T00:15:36.874Z,95633.11
2018-09-02T00:18:05.780Z,95631.73
2018-09-02T00:20:34.668Z,95637.48
2018-09-02T00:23:03.398Z,95637.30
2018-09-02T00:25:32.220Z,95647.64
2018-09-02T00:28:01.142Z,95642.17
2018-09-02T00:30:29.975Z,95645.42
2018-09-02T00:32:58.763Z,95648.98
2018-09-02T00:35:27.534Z,95656.50
2018-09-02T00:37:56.282Z,95653.66
2018-09-02T00:40:25.040Z,95654.11
2018-09-02T00:42:53.887Z,95659.92
2018-09-02T00:45:22.608Z,95658.90
2018-09-02T00:47:51.302Z,95658.05
2018-09-02T00:50:19.986Z,95659.92
2018-09-02T00:52:48.711Z,95663.28
2018-09-02T00:55:17.432Z,95664.09
2018-09-02T00:57:46.127Z,95663.06
2018-09-02T01:00:14.911Z,95663.85
2018-09-02T01:02:43.699Z,95661.67
2018-09-02T01:05:12.602Z,95661.29
2018-09-02T01:07:41.318Z,95666.09
2018-09-02T01:10:10.096Z,95667.39
2018-09-02T01:12:38.819Z,95674.92
2018-09-02T01:15:07.706Z,95672.86
2018-09-02T01:17:36.436Z,95669.77
2018-09-02T01:20:05.409Z,95673.80
2018-09-02T01:22:34.216Z,95672.16
2018-09-02T01:25:02.951Z,95673.64
2018-09-02T01:27:31.604Z,95674.41
2018-09-02T01:30:00.284Z,95674.75
2018-09-02T01:32:29.135Z,95672.53
2018-09-02T01:34:57.876Z,95669.55
2018-09-02T01:37:26.628Z,95672.36
2018-09-02T01:39:55.519Z,95669.14
2018-09-02T01:42:24.267Z,95672.61
2018-09-02T01:44:52.979Z,95668.82
2018-09-02T01:47:21.736Z,95668.58
2018-09-02T01:49:50.474Z,95666.31
2018-09-02T01:52:19.159Z,95666.61
2018-09-02T01:54:47.945Z,95665.03
2018-09-02T01:57:16.959Z,95659.02
2018-09-02T01:59:45.741Z,95667.13
2018-09-02T02:02:14.532Z,95673.84
2018-09-02T02:04:43.713Z,95673.34
2018-09-02T02:07:13.671Z,95670.20
2018-09-02T02:09:42.871Z,95675.14
2018-09-02T02:12:11.563Z,95673.36
2018-09-02T02:14:40.240Z,95674.81
2018-09-02T02:17:09.114Z,95677.28
2018-09-02T02:19:37.866Z,95669.94
2018-09-02T02:22:06.600Z,95672.45
2018-09-02T02:24:35.404Z,95667.34
2018-09-02T02:27:04.299Z,95667.45
2018-09-02T02:29:33.123Z,95669.91
2018-09-02T02:32:01.871Z,95660.19
2018-09-02T02:34:30.617Z,95661.33
2018-09-02T02:36:59.342Z,95663.01
2018-09-02T02:39:28.128Z,95666.13
2018-09-02T02:41:56.909Z,95667.55
2018-09-02T02:44:25.676Z,95666.92
2018-09-02T02:46:54.491Z,95677.02
2018-09-02T02:49:23.200Z,95673.23
2018-09-02T02:51:51.912Z,95679.91
2018-09-02T02:54:20.708Z,95682.88
2018-09-02T02:56:49.445Z,95683.28
2018-09-02T02:59:18.179Z,95678.87
2018-09-02T03:01:46.973Z,95680.55
2018-09-02T03:04:15.670Z,95681.80
2018-09-02T03:06:44.385Z,95683.12
2018-09-02T03:09:13.518Z,95685.28
2018-09-02T03:11:42.604Z,95686.00
2018-09-02T03:14:11.856Z,95686.55
2018-09-02T03:16:40.774Z,95686.27
2018-09-02T03:19:10.035Z,95690.97
2018-09-02T03:21:38.854Z,95687.63
2018-09-02T03:24:07.629Z,95693.55
2018-09-02T03:26:36.441Z,95695.13
2018-09-02T03:29:05.163Z,95694.98
2018-09-02T03:31:33.987Z,95696.34
2018-09-02T03:34:02.719Z,95696.92
2018-09-02T03:36:31.462Z,95707.56
2018-09-02T03:39:00.182Z,95708.43
2018-09-02T03:41:28.914Z,95716.31
2018-09-02T03:43:57.863Z,95715.89
2018-09-02T03:46:26.576Z,95717.94
2018-09-02T03:48:55.434Z,95683.34
2018-09-02T03:51:24.276Z,95710.06
2018-09-02T03:53:53.025Z,95708.20
2018-09-02T03:56:21.720Z,95525.52
2018-09-02T03:58:50.523Z,95713.39
2018-09-02T04:01:19.265Z,95709.08
2018-09-02T04:03:48.022Z,95714.00
2018-09-02T04:06:16.815Z,95720.59
2018-09-02T04:08:45.609Z,95724.57
2018-09-02T04:11:14.457Z,95719.91
2018-09-02T04:13:43.099Z,95723.38
2018-09-02T04:16:11.994Z,95722.19
2018-09-02T04:18:40.710Z,95730.32
2018-09-02T04:21:09.466Z,95731.30
2018-09-02T04:23:38.203Z,95736.39
2018-09-02T04:26:06.952Z,95735.38
2018-09-02T04:28:35.785Z,95726.80
2018-09-02T04:31:04.505Z,95729.27
2018-09-02T04:33:33.236Z,95736.43
2018-09-02T04:36:01.943Z,95734.55
2018-09-02T04:38:30.672Z,95740.91
2018-09-02T04:40:59.391Z,95750.24
2018-09-02T04:43:28.076Z,95751.91
2018-09-02T04:45:56.813Z,95754.49
2018-09-02T04:48:25.527Z,95751.42
2018-09-02T04:50:54.255Z,95749.64
2018-09-02T04:53:22.958Z,95744.48
2018-09-02T04:55:51.693Z,95739.39
2018-09-02T04:58:20.456Z,95738.80
2018-09-02T05:00:49.249Z,95741.94
2018-09-02T05:03:17.985Z,95742.11
2018-09-02T05:05:46.746Z,95745.00
2018-09-02T05:08:15.573Z,95734.82
2018-09-02T05:10:44.306Z,95729.06
2018-09-02T05:13:13.211Z,95732.92
2018-09-02T05:15:41.907Z,95739.64
2018-09-02T05:18:10.730Z,95740.88
2018-09-02T05:20:39.391Z,95737.05
2018-09-02T05:23:08.120Z,95727.84
2018-09-02T05:25:36.958Z,95738.44
2018-09-02T05:28:06.721Z,95726.27
2018-09-02T05:30:35.663Z,95728.78
2018-09-02T05:33:04.603Z,95729.53
2018-09-02T05:35:33.388Z,95728.70
2018-09-02T05:38:02.159Z,95729.70
2018-09-02T05:40:30.954Z,95725.83
2018-09-02T05:42:59.811Z,95724.59
2018-09-02T05:45:28.615Z,95733.98
2018-09-02T05:47:57.298Z,95725.92
2018-09-02T05:50:26.193Z,95720.25
2018-09-02T05:52:54.879Z,95725.82
2018-09-02T05:55:23.603Z,95726.67
2018-09-02T05:57:52.327Z,95722.91
2018-09-02T06:00:21.072Z,95718.72
2018-09-02T06:02:49.960Z,95725.64
2018-09-02T06:05:26.144Z,95732.61
2018-09-02T06:07:56.143Z,95730.29
2018-09-02T06:10:25.190Z,95735.86
2018-09-02T06:12:53.993Z,95748.27
2018-09-02T06:15:22.696Z,95750.46
2018-09-02T06:17:51.415Z,95745.05
2018-09-02T06:20:20.172Z,95746.66
2018-09-02T06:22:48.964Z,95739.70
2018-09-02T06:25:17.776Z,95747.14
2018-09-02T06:27:46.833Z,95740.46
2018-09-02T06:30:15.820Z,95745.19
2018-09-02T06:32:44.686Z,95741.28
2018-09-02T06:35:13.956Z,95745.10
2018-09-02T06:37:42.766Z,95743.28
2018-09-02T06:40:11.537Z,95745.72
2018-09-02T06:42:40.353Z,95748.81
2018-09-02T06:45:09.207Z,95743.41
2018-09-02T06:47:38.250Z,95755.48
2018-09-02T06:50:07.400Z,95746.94
2018-09-02T06:52:36.270Z,95724.43
2018-09-02T06:55:05.210Z,95752.47
2018-09-02T06:57:33.985Z,95753.72
2018-09-02T07:00:02.718Z,95753.13
2018-09-02T07:02:31.448Z,95694.66
2018-09-02T07:05:00.346Z,95753.82
2018-09-02T07:07:29.200Z,95762.09
2018-09-02T07:09:57.855Z,95765.16
2018-09-02T07:12:26.631Z,95765.82
2018-09-02T07:14:55.484Z,95764.12
2018-09-02T07:17:24.292Z,95768.36
2018-09-02T07:19:53.148Z,95771.56
2018-09-02T07:22:21.965Z,95771.03
2018-09-02T07:24:50.805Z,95773.44
2018-09-02T07:27:19.577Z,95761.91
2018-09-02T07:29:48.248Z,95768.59
2018-09-02T07:32:17.153Z,95764.38
2018-09-02T07:34:45.961Z,95769.15
2018-09-02T07:37:14.773Z,95763.84
2018-09-02T07:39:43.510Z,95766.02
2018-09-02T07:42:12.347Z,95759.33
2018-09-02T07:44:41.324Z,95763.89
2018-09-02T07:47:10.006Z,95762.03
2018-09-02T07:49:38.788Z,95764.15
2018-09-02T07:52:07.625Z,95751.84
2018-09-02T07:54:36.462Z,95754.34
2018-09-02T07:57:05.224Z,95758.09
2018-09-02T07:59:34.067Z,95749.05
2018-09-02T08:02:02.975Z,95745.98
2018-09-02T08:04:31.713Z,95738.61
2018-09-02T08:07:00.559Z,95733.19
2018-09-02T08:09:29.413Z,95735.77
2018-09-02T08:11:58.215Z,95733.16
2018-09-02T08:14:27.040Z,95732.08
2018-09-02T08:16:55.838Z,95726.63
2018-09-02T08:19:24.631Z,95728.14
2018-09-02T08:21:53.582Z,95727.25
2018-09-02T08:24:22.446Z,95723.35
2018-09-02T08:26:51.126Z,95729.78
2018-09-02T08:29:19.942Z,95739.92
2018-09-02T08:31:48.748Z,95736.85
2018-09-02T08:34:17.495Z,95730.13
2018-09-02T08:36:46.316Z,95735.13
2018-09-02T08:39:15.322Z,95735.84
2018-09-02T08:41:44.079Z,95721.97
2018-09-02T08:44:13.090Z,95729.84
2018-09-02T08:46:41.898Z,95726.00
2018-09-02T08:49:10.746Z,95728.14
2018-09-02T08:51:39.632Z,95728.17
2018-09-02T08:54:08.884Z,95721.62
2018-09-02T08:56:37.734Z,95719.16
2018-09-02T08:59:06.465Z,95716.66
2018-09-02T09:01:35.402Z,95711.20
2018-09-02T09:04:04.132Z,95713.61
2018-09-02T09:06:32.899Z,95710.59
2018-09-02T09:09:01.802Z,95713.01
2018-09-02T09:11:30.436Z,95102.47
2018-09-02T09:13:59.170Z,95700.66
2018-09-02T09:16:28.073Z,95703.28
2018-09-02T09:18:56.732Z,95701.43
2018-09-02T09:21:25.563Z,95701.73
2018-09-02T09:23:54.305Z,95699.72
2018-09-02T09:26:23.055Z,95695.37
2018-09-02T09:28:51.763Z,95688.27
2018-09-02T09:31:20.535Z,95692.34
2018-09-02T09:33:49.262Z,95690.74
2018-09-02T09:36:18.059Z,95687.52
2018-09-02T09:38:46.902Z,95689.19
2018-09-02T09:41:15.580Z,95681.81
2018-09-02T09:43:44.226Z,95695.89
2018-09-02T09:46:13.003Z,95684.39
2018-09-02T09:48:41.686Z,95674.83
2018-09-02T09:51:10.347Z,95684.63
2018-09-02T09:53:39.053Z,95693.67
2018-09-02T09:56:07.778Z,95685.73
2018-09-02T09:58:36.417Z,95687.75
2018-09-02T10:01:05.155Z,95668.64
2018-09-02T10:03:33.940Z,95676.83
2018-09-02T10:06:02.636Z,95690.72
2018-09-02T10:08:31.383Z,95667.59
2018-09-02T10:11:00.204Z,95672.63
2018-09-02T10:13:29.558Z,95497.98
2018-09-02T10:15:58.332Z,95671.52
2018-09-02T10:18:27.135Z,95680.61
2018-09-02T10:20:56.693Z,95680.61
2018-09-02T10:23:25.525Z,95659.41
2018-09-02T10:25:54.325Z,95659.66
2018-09-02T10:28:23.090Z,95634.51
2018-09-02T10:30:51.904Z,95661.25
2018-09-02T10:33:20.806Z,95675.81
2018-09-02T10:35:49.550Z,95656.28
2018-09-02T10:38:18.258Z,95648.72
2018-09-02T10:40:47.036Z,95655.33
2018-09-02T10:43:15.812Z,95638.68
2018-09-02T10:45:44.546Z,95646.28
2018-09-02T10:48:13.299Z,95659.92
2018-09-02T10:50:42.072Z,95645.66
2018-09-02T10:53:10.866Z,95643.63
2018-09-02T10:55:39.922Z,95638.12
2018-09-02T10:58:08.607Z,95637.88
2018-09-02T11:00:37.412Z,95646.23
2018-09-02T11:03:06.402Z,95631.13
2018-09-02T11:05:35.166Z,95622.48
2018-09-02T11:08:04.044Z,95622.94
2018-09-02T11:10:32.710Z,95624.64
2018-09-02T11:13:01.448Z,95634.34
2018-09-02T11:15:30.150Z,95610.44
2018-09-02T11:17:59.010Z,95621.41
2018-09-02T11:20:27.728Z,95629.62
2018-09-02T11:22:56.418Z,95628.52
2018-09-02T11:25:25.140Z,95482.91
2018-09-02T11:27:53.825Z,95633.13
2018-09-02T11:30:22.571Z,95621.03
2018-09-02T11:32:51.326Z,95623.86
2018-09-02T11:35:20.066Z,95614.45
2018-09-02T11:37:48.842Z,95611.30
2018-09-02T11:40:17.517Z,95608.71
2018-09-02T11:42:46.195Z,95605.44
2018-09-02T11:45:14.859Z,95601.66
2018-09-02T11:47:43.568Z,95614.75
2018-09-02T11:50:12.291Z,95623.47
2018-09-02T11:52:40.963Z,95605.16
2018-09-02T11:55:09.766Z,95594.33
2018-09-02T11:57:38.523Z,95586.73
2018-09-02T12:00:07.503Z,95592.48
2018-09-02T12:02:36.222Z,95581.48
2018-09-02T12:05:05.035Z,95581.55
2018-09-02T12:07:33.719Z,95591.95
2018-09-02T12:10:02.465Z,95579.05
2018-09-02T12:12:31.287Z,95574.23
2018-09-02T12:15:00.844Z,95598.62
2018-09-02T12:17:29.491Z,95583.03
2018-09-02T12:19:58.185Z,95581.58
2018-09-02T12:22:26.882Z,95580.27
2018-09-02T12:24:55.550Z,95582.61
2018-09-02T12:27:24.293Z,95568.55
2018-09-02T12:29:53.049Z,95575.69
2018-09-02T12:32:21.721Z,95564.47
2018-09-02T12:34:50.385Z,95568.91
2018-09-02T12:37:19.053Z,95565.49
2018-09-02T12:39:47.697Z,95556.22
2018-09-02T12:42:16.415Z,95555.14
2018-09-02T12:44:45.112Z,95555.21
2018-09-02T12:47:14.041Z,95552.15
2018-09-02T12:49:42.784Z,95580.89
2018-09-02T12:52:11.481Z,95556.36
2018-09-02T12:54:40.235Z,95555.34
2018-09-02T12:57:08.925Z,95560.58
2018-09-02T12:59:37.724Z,95551.85
2018-09-02T13:02:06.603Z,95545.48
2018-09-02T13:04:35.474Z,95550.84
2018-09-02T13:07:04.174Z,95540.45
2018-09-02T13:09:33.012Z,95548.94
2018-09-02T13:12:01.753Z,95546.42
2018-09-02T13:14:30.555Z,95547.38
2018-09-02T13:16:59.342Z,95543.50
2018-09-02T13:19:28.064Z,95546.00
2018-09-02T13:21:56.828Z,95550.52
2018-09-02T13:24:25.577Z,95546.70
2018-09-02T13:26:54.210Z,95545.80
2018-09-02T13:29:23.022Z,95554.55
2018-09-02T13:31:51.884Z,95544.34
2018-09-02T13:34:20.605Z,95529.34
2018-09-02T13:36:49.430Z,95531.70
2018-09-02T13:39:18.172Z,95535.27
2018-09-02T13:41:47.055Z,95535.59
2018-09-02T13:44:15.809Z,95540.92
2018-09-02T13:46:44.555Z,95541.28
2018-09-02T13:49:13.565Z,95528.59
2018-09-02T13:51:42.786Z,95525.69
2018-09-02T13:54:11.640Z,95528.26
2018-09-02T13:56:41.102Z,95517.88
2018-09-02T13:59:09.751Z,95510.04
2018-09-02T14:01:38.780Z,95516.64
2018-09-02T14:04:07.697Z,95526.08
2018-09-02T14:06:36.515Z,95512.56
2018-09-02T14:09:06.326Z,95520.45
2018-09-02T14:11:35.085Z,95525.75
2018-09-02T14:14:03.882Z,95521.42
2018-09-02T14:16:32.663Z,95520.45
2018-09-02T14:19:01.440Z,95520.20
2018-09-02T14:21:30.218Z,95520.41
2018-09-02T14:23:58.898Z,95523.75
2018-09-02T14:26:27.774Z,95511.97
2018-09-02T14:28:56.491Z,95507.02
2018-09-02T14:31:25.191Z,95505.77
2018-09-02T14:33:53.962Z,95503.69
2018-09-02T14:36:22.704Z,95508.19
2018-09-02T14:38:51.635Z,95509.33
2018-09-02T14:41:20.423Z,95514.61
2018-09-02T14:43:49.408Z,95508.44
2018-09-02T14:46:18.141Z,95500.86
2018-09-02T14:48:46.944Z,95505.20
2018-09-02T14:51:15.720Z,95515.59
2018-09-02T14:53:44.397Z,95506.06
2018-09-02T14:56:13.195Z,95503.37
2018-09-02T14:58:41.965Z,95499.16
2018-09-02T15:01:10.721Z,95500.17
2018-09-02T15:03:39.411Z,95496.37
2018-09-02T15:06:08.227Z,95500.64
2018-09-02T15:08:36.918Z,95505.63
2018-09-02T15:11:05.951Z,95502.55
2018-09-02T15:13:34.746Z,95504.20
2018-09-02T15:16:04.571Z,95497.48
2018-09-02T15:18:33.500Z,95504.33
2018-09-02T15:21:02.354Z,95494.20
2018-09-02T15:23:31.144Z,95491.74
2018-09-02T15:25:59.843Z,95464.44
2018-09-02T15:28:28.490Z,95486.03
2018-09-02T15:30:57.306Z,95484.95
2018-09-02T15:33:26.142Z,95488.37
2018-09-02T15:35:54.842Z,95495.52
2018-09-02T15:38:23.567Z,95490.93
2018-09-02T15:40:52.289Z,95490.47
2018-09-02T15:43:20.955Z,95491.62
2018-09-02T15:45:49.647Z,95480.28
2018-09-02T15:48:18.506Z,95482.13
2018-09-02T15:50:47.257Z,95481.35
2018-09-02T15:53:16.023Z,95480.42
2018-09-02T15:55:44.760Z,95484.85
2018-09-02T15:58:13.553Z,95478.58
2018-09-02T16:00:42.698Z,95479.90
2018-09-02T16:03:21.568Z,95477.69
2018-09-02T16:05:55.733Z,95471.77
2018-09-02T16:08:28.030Z,95483.06
2018-09-02T16:10:58.839Z,95478.50
2018-09-02T16:13:27.554Z,95477.35
2018-09-02T16:15:56.503Z,95473.87
2018-09-02T16:18:25.242Z,95476.94
2018-09-02T16:20:53.984Z,95474.55
2018-09-02T16:23:22.723Z,95471.17
2018-09-02T16:25:51.543Z,95474.89
2018-09-02T16:28:20.326Z,95485.30
2018-09-02T16:30:49.123Z,95483.17
2018-09-02T16:33:17.782Z,95486.80
2018-09-02T16:35:46.723Z,95486.67
2018-09-02T16:38:15.499Z,95489.81
2018-09-02T16:40:44.210Z,95485.08
2018-09-02T16:43:12.897Z,95488.52
2018-09-02T16:45:44.018Z,95486.23
2018-09-02T16:48:12.787Z,95479.59
2018-09-02T16:50:41.558Z,95487.00
2018-09-02T16:53:10.439Z,95482.89
2018-09-02T16:55:39.302Z,95484.08
2018-09-02T16:58:08.059Z,95487.17
2018-09-02T17:00:36.946Z,95484.86
2018-09-02T17:03:05.690Z,95492.43
2018-09-02T17:05:34.374Z,95482.40
2018-09-02T17:08:03.063Z,95487.00
2018-09-02T17:10:31.822Z,95487.42
2018-09-02T17:13:00.625Z,95492.55
2018-09-02T17:15:29.354Z,95495.75
2018-09-02T17:17:58.116Z,95492.38
2018-09-02T17:20:36.359Z,95501.20
2018-09-02T17:23:10.177Z,95494.09
2018-09-02T17:25:38.963Z,95513.73
2018-09-02T17:28:07.846Z,95507.36
2018-09-02T17:30:37.278Z,95513.00
2018-09-02T17:33:06.870Z,95515.83
2018-09-02T17:35:35.565Z,95515.48
2018-09-02T17:38:04.309Z,95517.31
2018-09-02T17:40:33.355Z,95526.46
2018-09-02T17:43:02.522Z,95520.30
2018-09-02T17:45:31.310Z,95531.17
2018-09-02T17:48:00.047Z,95529.09
2018-09-02T17:50:28.778Z,95527.55
2018-09-02T17:52:57.675Z,95521.39
2018-09-02T17:55:26.413Z,95531.52
2018-09-02T17:57:55.241Z,95532.55
2018-09-02T18:00:27.195Z,95531.12
2018-09-02T18:02:56.042Z,95531.53
2018-09-02T18:05:24.926Z,95543.17
2018-09-02T18:07:53.635Z,95546.20
2018-09-02T18:10:22.347Z,95539.28
2018-09-02T18:12:51.095Z,95538.98
2018-09-02T18:15:19.856Z,95543.27
2018-09-02T18:17:48.551Z,95542.26
2018-09-02T18:20:17.280Z,95536.45
2018-09-02T18:22:46.010Z,95537.70
2018-09-02T18:25:14.780Z,95540.43
2018-09-02T18:27:45.801Z,95545.73
2018-09-02T18:30:14.575Z,95539.39
2018-09-02T18:32:43.306Z,95538.48
2018-09-02T18:35:12.111Z,95542.39
2018-09-02T18:37:40.830Z,95551.55
2018-09-02T18:40:09.513Z,95539.78
2018-09-02T18:42:38.319Z,95548.73
2018-09-02T18:45:07.291Z,95543.84
2018-09-02T18:47:35.966Z,95552.98
2018-09-02T18:50:04.893Z,95549.66
2018-09-02T18:52:33.694Z,95538.66
2018-09-02T18:55:02.419Z,95535.55
2018-09-02T18:57:31.083Z,95545.44
2018-09-02T18:59:59.756Z,95542.58
2018-09-02T19:02:28.478Z,95544.42
2018-09-02T19:04:57.330Z,95546.47
2018-09-02T19:07:26.066Z,95547.52
2018-09-02T19:09:54.898Z,95544.63
2018-09-02T19:12:23.622Z,95543.34
2018-09-02T19:14:52.391Z,95542.55
2018-09-02T19:17:21.117Z,95543.02
2018-09-02T19:19:49.797Z,95545.64
2018-09-02T19:22:18.598Z,95542.38
2018-09-02T19:24:47.269Z,95541.03
2018-09-02T19:27:15.958Z,95542.92
2018-09-02T19:29:44.707Z,95537.44
2018-09-02T19:32:13.565Z,95539.86
2018-09-02T19:34:42.334Z,95540.08
2018-09-02T19:37:11.053Z,95540.33
2018-09-02T19:39:39.774Z,95541.94
2018-09-02T19:42:08.561Z,95538.39
2018-09-02T19:44:37.292Z,95538.67
2018-09-02T19:47:06.140Z,95543.25
2018-09-02T19:49:34.973Z,95544.83
2018-09-02T19:52:03.742Z,95541.87
2018-09-02T19:54:32.382Z,95538.16
2018-09-02T19:57:01.125Z,95551.35
2018-09-02T19:59:29.985Z,95543.63
2018-09-02T20:01:58.811Z,95552.45
2018-09-02T20:04:27.558Z,95551.66
2018-09-02T20:06:56.280Z,95510.05
2018-09-02T20:09:24.913Z,95552.95
2018-09-02T20:11:53.551Z,95548.67
2018-09-02T20:14:22.250Z,95549.28
2018-09-02T20:16:50.953Z,95546.73
2018-09-02T20:19:19.731Z,95540.51
2018-09-02T20:21:48.471Z,95538.19
2018-09-02T20:24:17.233Z,95540.59
2018-09-02T20:26:45.993Z,95542.45
2018-09-02T20:29:14.684Z,95360.20
2018-09-02T20:31:43.414Z,95534.05
2018-09-02T20:34:12.174Z,95531.92
2018-09-02T20:36:40.950Z,95534.96
2018-09-02T20:39:09.919Z,95525.66
2018-09-02T20:41:38.578Z,95534.77
2018-09-02T20:44:07.658Z,95532.25
2018-09-02T20:46:36.528Z,95529.33
2018-09-02T20:49:05.471Z,95527.58
2018-09-02T20:51:34.135Z,95531.28
2018-09-02T20:54:02.858Z,95526.16
2018-09-02T20:56:31.522Z,95528.53
2018-09-02T20:59:00.243Z,95533.19
2018-09-02T21:01:29.012Z,95535.19
2018-09-02T21:03:57.802Z,95532.61
2018-09-02T21:06:26.476Z,95529.68
2018-09-02T21:08:55.328Z,95532.45
2018-09-02T21:11:24.175Z,95523.88
2018-09-02T21:13:52.940Z,95528.39
2018-09-02T21:16:21.686Z,95523.88
2018-09-02T21:18:50.422Z,95532.35
2018-09-02T21:21:19.098Z,95527.25
2018-09-02T21:23:47.795Z,95529.05
2018-09-02T21:26:16.547Z,95527.48
2018-09-02T21:28:45.337Z,95527.10
2018-09-02T21:31:14.028Z,95520.66
2018-09-02T21:33:42.780Z,95516.11
2018-09-02T21:36:11.411Z,95511.56
2018-09-02T21:38:40.131Z,95514.52
2018-09-02T21:41:08.802Z,95517.97
2018-09-02T21:43:37.601Z,95516.69
2018-09-02T21:46:06.546Z,95514.97
2018-09-02T21:48:35.246Z,95513.80
2018-09-02T21:51:04.585Z,95517.77
2018-09-02T21:53:33.383Z,95517.83
2018-09-02T21:56:02.267Z,95521.02
2018-09-02T21:58:31.099Z,95519.68
2018-09-02T22:00:59.890Z,95517.72
2018-09-02T22:03:28.785Z,95551.86
2018-09-02T22:05:57.583Z,95520.28
2018-09-02T22:08:26.401Z,95517.56
2018-09-02T22:10:55.204Z,95513.67
2018-09-02T22:13:23.975Z,95507.98
2018-09-02T22:15:52.737Z,95508.01
2018-09-02T22:18:21.437Z,95500.77
2018-09-02T22:20:50.163Z,95505.08
2018-09-02T22:23:19.026Z,95504.48
2018-09-02T22:25:48.056Z,95497.24
2018-09-02T22:28:16.844Z,95497.65
2018-09-02T22:30:45.557Z,95505.88
2018-09-02T22:33:14.305Z,95497.08
2018-09-02T22:35:43.093Z,95499.62
2018-09-02T22:38:12.324Z,95495.34
2018-09-02T22:40:41.064Z,95497.48
2018-09-02T22:43:09.805Z,95495.89
2018-09-02T22:45:38.817Z,95495.11
2018-09-02T22:48:07.891Z,95493.36
2018-09-02T22:50:36.551Z,95478.47
2018-09-02T22:53:05.278Z,95496.70
2018-09-02T22:55:34.038Z,95491.98
2018-09-02T22:58:02.833Z,95494.33
2018-09-02T23:00:31.650Z,95489.24
2018-09-02T23:03:00.323Z,95493.55
2018-09-02T23:05:28.990Z,95491.00
2018-09-02T23:07:57.700Z,95497.25
2018-09-02T23:10:26.442Z,95488.85
2018-09-02T23:12:55.281Z,95484.53
2018-09-02T23:15:24.162Z,95484.91
2018-09-02T23:17:52.926Z,95488.85
2018-09-02T23:20:21.786Z,95483.37
2018-09-02T23:22:50.687Z,95484.73
2018-09-02T23:25:19.603Z,95477.26
2018-09-02T23:27:48.420Z,95308.21
2018-09-02T23:30:17.191Z,95471.41
2018-09-02T23:32:45.902Z,95470.22
2018-09-02T23:35:14.582Z,95473.15
2018-09-02T23:37:43.271Z,95469.84
2018-09-02T23:40:12.005Z,95472.38
2018-09-02T23:42:40.716Z,95471.20
2018-09-02T23:45:09.421Z,95469.62
2018-09-02T23:47:38.275Z,95460.42
2018-09-02T23:50:07.170Z,95467.09
2018-09-02T23:52:36.011Z,95466.68
2018-09-02T23:55:04.947Z,95464.72
2018-09-02T23:57:33.592Z,95465.32
